Terminal Aerodrome Forecast
Issued by NWS Boston, MA

Home | Current Version | Previous Version | Text Only | Print | Product List | Glossary On
Versions: 1 2 3 4 5 6 7 8 9 10 11 12 13 14 15 16 17 18 19 20 21 22 23 24 25 26 27 28 29 30 31 32 33 34 35 36 37 38 39 40 41 42
000
FTUS41 KBOX 032005 AAA
TAFBOS
TAF AMD
KBOS 032005Z 0320/0424 20017KT P6SM FEW050
     FM040500 21010KT P6SM BKN060
     FM040700 22008KT P6SM VCSH BKN200
     FM041800 23012G19KT P6SM VCSH BKN050=

USA.gov is the U.S. government's official web portal to all federal, state and local government web resources and services.